sensor_id;sensor_type;location;lat;lon;timestamp;pressure;altitude;pressure_sealevel;temperature;humidity
69796;BME280;57073;45.650;9.612;2023-02-16T00:07:19;100431.25;;;7.80;53.13
69796;BME280;57073;45.650;9.612;2023-02-16T00:17:19;100430.81;;;8.08;52.40
69796;BME280;57073;45.650;9.612;2023-02-16T00:27:20;100428.19;;;8.00;53.17
69796;BME280;57073;45.650;9.612;2023-02-16T00:37:20;100424.59;;;8.24;49.96
69796;BME280;57073;45.650;9.612;2023-02-16T00:47:31;100413.88;;;8.24;51.89
69796;BME280;57073;45.650;9.612;2023-02-16T00:57:37;100414.97;;;8.46;50.68
69796;BME280;57073;45.650;9.612;2023-02-16T01:07:39;100410.56;;;8.22;50.41
69796;BME280;57073;45.650;9.612;2023-02-16T01:17:58;100409.09;;;8.11;51.57
69796;BME280;57073;45.650;9.612;2023-02-16T01:27:58;100400.44;;;8.01;50.55
69796;BME280;57073;45.650;9.612;2023-02-16T01:37:59;100392.03;;;7.73;51.44
69796;BME280;57073;45.650;9.612;2023-02-16T01:48:05;100382.16;;;7.73;51.76
69796;BME280;57073;45.650;9.612;2023-02-16T02:18:23;100366.72;;;7.44;52.58
69796;BME280;57073;45.650;9.612;2023-02-16T02:28:31;100364.72;;;7.46;49.94
69796;BME280;57073;45.650;9.612;2023-02-16T02:48:46;100360.25;;;7.22;51.39
69796;BME280;57073;45.650;9.612;2023-02-16T02:58:49;100344.56;;;7.27;50.96
69796;BME280;57073;45.650;9.612;2023-02-16T03:09:13;100350.22;;;7.40;48.21
69796;BME280;57073;45.650;9.612;2023-02-16T03:19:16;100355.91;;;7.21;46.92
69796;BME280;57073;45.650;9.612;2023-02-16T03:29:36;100355.25;;;7.19;48.72
69796;BME280;57073;45.650;9.612;2023-02-16T03:39:38;100360.41;;;7.20;48.66
69796;BME280;57073;45.650;9.612;2023-02-16T03:49:57;100346.91;;;7.14;49.81
69796;BME280;57073;45.650;9.612;2023-02-16T03:59:57;100347.75;;;7.06;49.71
69796;BME280;57073;45.650;9.612;2023-02-16T04:09:58;100348.41;;;7.16;49.53
69796;BME280;57073;45.650;9.612;2023-02-16T04:19:58;100345.91;;;7.15;49.52
69796;BME280;57073;45.650;9.612;2023-02-16T04:29:59;100351.44;;;6.97;48.78
69796;BME280;57073;45.650;9.612;2023-02-16T04:39:59;100348.75;;;7.05;48.48
69796;BME280;57073;45.650;9.612;2023-02-16T04:49:59;100356.41;;;7.24;47.62
69796;BME280;57073;45.650;9.612;2023-02-16T05:00:00;100354.41;;;7.26;48.45
69796;BME280;57073;45.650;9.612;2023-02-16T05:10:00;100365.41;;;7.40;47.91
69796;BME280;57073;45.650;9.612;2023-02-16T05:20:01;100358.88;;;7.34;47.79
69796;BME280;57073;45.650;9.612;2023-02-16T05:30:02;100364.06;;;7.36;47.30
69796;BME280;57073;45.650;9.612;2023-02-16T05:40:02;100377.22;;;7.54;47.07
69796;BME280;57073;45.650;9.612;2023-02-16T05:50:03;100384.72;;;7.58;47.65
69796;BME280;57073;45.650;9.612;2023-02-16T06:00:04;100395.63;;;7.24;48.20
69796;BME280;57073;45.650;9.612;2023-02-16T06:10:05;100398.63;;;7.04;47.51
69796;BME280;57073;45.650;9.612;2023-02-16T06:20:06;100425.50;;;7.11;48.86
69796;BME280;57073;45.650;9.612;2023-02-16T06:30:07;100440.50;;;7.12;48.34
69796;BME280;57073;45.650;9.612;2023-02-16T06:40:08;100438.16;;;7.34;48.16
69796;BME280;57073;45.650;9.612;2023-02-16T06:50:09;100455.38;;;7.15;48.02
69796;BME280;57073;45.650;9.612;2023-02-16T07:00:10;100459.03;;;7.14;48.22
69796;BME280;57073;45.650;9.612;2023-02-16T07:10:11;100459.38;;;7.19;49.74
69796;BME280;57073;45.650;9.612;2023-02-16T07:20:12;100469.38;;;7.41;48.97
69796;BME280;57073;45.650;9.612;2023-02-16T07:30:12;100467.19;;;7.70;47.63
69796;BME280;57073;45.650;9.612;2023-02-16T07:40:15;100460.22;;;8.08;46.09
69796;BME280;57073;45.650;9.612;2023-02-16T07:50:15;100463.41;;;8.12;46.76
69796;BME280;57073;45.650;9.612;2023-02-16T08:00:16;100467.53;;;8.31;46.70
69796;BME280;57073;45.650;9.612;2023-02-16T08:10:17;100484.53;;;8.77;44.78
69796;BME280;57073;45.650;9.612;2023-02-16T08:20:17;100492.66;;;9.38;44.56
69796;BME280;57073;45.650;9.612;2023-02-16T08:30:18;100493.44;;;10.00;44.25
69796;BME280;57073;45.650;9.612;2023-02-16T08:40:19;100492.72;;;10.87;43.54
69796;BME280;57073;45.650;9.612;2023-02-16T08:50:23;100496.84;;;11.48;43.68
69796;BME280;57073;45.650;9.612;2023-02-16T09:00:24;100499.19;;;12.07;45.15
69796;BME280;57073;45.650;9.612;2023-02-16T09:10:33;100490.56;;;12.67;45.86
69796;BME280;57073;45.650;9.612;2023-02-16T09:20:36;100495.53;;;13.32;46.69
69796;BME280;57073;45.650;9.612;2023-02-16T09:30:38;100495.34;;;13.60;48.30
69796;BME280;57073;45.650;9.612;2023-02-16T09:40:39;100504.91;;;13.69;49.03
69796;BME280;57073;45.650;9.612;2023-02-16T09:50:39;100506.34;;;13.52;52.62
69796;BME280;57073;45.650;9.612;2023-02-16T10:00:46;100496.19;;;13.60;52.16
69796;BME280;57073;45.650;9.612;2023-02-16T10:21:02;100505.94;;;13.55;53.67
69796;BME280;57073;45.650;9.612;2023-02-16T10:31:37;100508.81;;;13.53;53.55
69796;BME280;57073;45.650;9.612;2023-02-16T10:41:43;100501.56;;;13.47;52.85
69796;BME280;57073;45.650;9.612;2023-02-16T10:51:47;100507.78;;;13.41;53.75
69796;BME280;57073;45.650;9.612;2023-02-16T11:01:57;100487.47;;;13.58;53.27
69796;BME280;57073;45.650;9.612;2023-02-16T11:11:58;100488.28;;;13.52;53.28
69796;BME280;57073;45.650;9.612;2023-02-16T11:21:59;100478.13;;;13.54;52.81
69796;BME280;57073;45.650;9.612;2023-02-16T11:32:05;100465.03;;;13.65;52.83
69796;BME280;57073;45.650;9.612;2023-02-16T11:52:23;100444.31;;;13.65;52.44
69796;BME280;57073;45.650;9.612;2023-02-16T12:22:47;100401.94;;;13.79;51.23
69796;BME280;57073;45.650;9.612;2023-02-16T12:43:01;100392.81;;;13.80;50.79
69796;BME280;57073;45.650;9.612;2023-02-16T12:53:22;100380.94;;;13.94;50.69
69796;BME280;57073;45.650;9.612;2023-02-16T13:03:33;100365.78;;;13.93;50.72
69796;BME280;57073;45.650;9.612;2023-02-16T13:13:37;100345.88;;;13.94;50.57
69796;BME280;57073;45.650;9.612;2023-02-16T13:44:14;100313.69;;;13.93;49.57
69796;BME280;57073;45.650;9.612;2023-02-16T13:54:37;100318.28;;;13.92;49.58
69796;BME280;57073;45.650;9.612;2023-02-16T14:24:42;100308.91;;;13.95;49.40
69796;BME280;57073;45.650;9.612;2023-02-16T14:34:57;100298.13;;;13.95;48.37
69796;BME280;57073;45.650;9.612;2023-02-16T14:55:52;100290.50;;;13.85;48.46
69796;BME280;57073;45.650;9.612;2023-02-16T15:05:56;100294.22;;;13.77;49.09
69796;BME280;57073;45.650;9.612;2023-02-16T15:15:59;100287.59;;;13.80;48.19
69796;BME280;57073;45.650;9.612;2023-02-16T15:26:04;100294.63;;;13.81;48.55
69796;BME280;57073;45.650;9.612;2023-02-16T15:36:09;100297.38;;;13.74;48.97
69796;BME280;57073;45.650;9.612;2023-02-16T15:46:22;100302.81;;;13.61;49.75
69796;BME280;57073;45.650;9.612;2023-02-16T15:56:29;100303.19;;;13.78;49.18
69796;BME280;57073;45.650;9.612;2023-02-16T16:06:37;100305.88;;;13.71;48.92
69796;BME280;57073;45.650;9.612;2023-02-16T16:16:39;100305.28;;;13.63;49.45
69796;BME280;57073;45.650;9.612;2023-02-16T16:26:55;100310.69;;;13.56;49.38
69796;BME280;57073;45.650;9.612;2023-02-16T16:36:56;100321.13;;;13.46;49.84
69796;BME280;57073;45.650;9.612;2023-02-16T16:47:26;100309.06;;;13.21;50.46
69796;BME280;57073;45.650;9.612;2023-02-16T16:57:27;100334.38;;;13.14;50.66
69796;BME280;57073;45.650;9.612;2023-02-16T17:07:29;100334.19;;;13.02;50.66
69796;BME280;57073;45.650;9.612;2023-02-16T17:17:30;100340.84;;;12.93;51.64
69796;BME280;57073;45.650;9.612;2023-02-16T17:27:30;100352.19;;;12.55;53.55
69796;BME280;57073;45.650;9.612;2023-02-16T17:37:32;100356.09;;;12.45;53.14
69796;BME280;57073;45.650;9.612;2023-02-16T17:47:34;100354.84;;;12.48;53.01
69796;BME280;57073;45.650;9.612;2023-02-16T17:57:35;100358.34;;;12.35;53.42
69796;BME280;57073;45.650;9.612;2023-02-16T18:07:36;100369.00;;;12.08;54.51
69796;BME280;57073;45.650;9.612;2023-02-16T18:17:36;100382.22;;;12.03;54.43
69796;BME280;57073;45.650;9.612;2023-02-16T18:27:37;100401.25;;;12.02;54.48
69796;BME280;57073;45.650;9.612;2023-02-16T18:37:37;100414.69;;;11.95;54.87
69796;BME280;57073;45.650;9.612;2023-02-16T18:47:38;100425.97;;;11.84;55.57
69796;BME280;57073;45.650;9.612;2023-02-16T18:57:38;100431.09;;;11.79;55.42
69796;BME280;57073;45.650;9.612;2023-02-16T19:07:39;100438.09;;;12.01;55.04
69796;BME280;57073;45.650;9.612;2023-02-16T19:17:39;100454.78;;;11.90;54.32
69796;BME280;57073;45.650;9.612;2023-02-16T19:27:40;100463.41;;;11.85;54.18
69796;BME280;57073;45.650;9.612;2023-02-16T19:37:40;100468.41;;;11.60;54.06
69796;BME280;57073;45.650;9.612;2023-02-16T19:47:41;100479.28;;;11.52;54.62
69796;BME280;57073;45.650;9.612;2023-02-16T19:57:41;100485.59;;;11.38;54.73
69796;BME280;57073;45.650;9.612;2023-02-16T20:07:41;100481.81;;;11.32;54.74
69796;BME280;57073;45.650;9.612;2023-02-16T20:17:42;100486.28;;;11.25;54.71
69796;BME280;57073;45.650;9.612;2023-02-16T20:27:42;100505.63;;;11.13;55.87
69796;BME280;57073;45.650;9.612;2023-02-16T20:37:43;100503.50;;;11.09;55.75
69796;BME280;57073;45.650;9.612;2023-02-16T20:47:43;100503.00;;;10.99;55.85
69796;BME280;57073;45.650;9.612;2023-02-16T20:57:43;100506.56;;;11.06;56.33
69796;BME280;57073;45.650;9.612;2023-02-16T21:07:45;100505.72;;;11.05;56.52
69796;BME280;57073;45.650;9.612;2023-02-16T21:17:45;100506.38;;;11.07;56.47
69796;BME280;57073;45.650;9.612;2023-02-16T21:27:46;100510.19;;;10.98;56.28
69796;BME280;57073;45.650;9.612;2023-02-16T21:37:46;100504.63;;;11.00;56.55
69796;BME280;57073;45.650;9.612;2023-02-16T21:47:47;100510.69;;;10.87;57.06
69796;BME280;57073;45.650;9.612;2023-02-16T21:58:05;100509.69;;;10.88;56.72
69796;BME280;57073;45.650;9.612;2023-02-16T22:08:07;100499.41;;;10.77;57.68
69796;BME280;57073;45.650;9.612;2023-02-16T22:18:07;100499.88;;;10.80;58.06
69796;BME280;57073;45.650;9.612;2023-02-16T22:28:08;100485.81;;;10.78;58.26
69796;BME280;57073;45.650;9.612;2023-02-16T22:38:08;100494.03;;;10.77;57.77
69796;BME280;57073;45.650;9.612;2023-02-16T22:48:08;100497.84;;;10.67;58.72
69796;BME280;57073;45.650;9.612;2023-02-16T22:58:10;100494.34;;;10.67;58.75
69796;BME280;57073;45.650;9.612;2023-02-16T23:08:10;100490.19;;;10.49;59.61
69796;BME280;57073;45.650;9.612;2023-02-16T23:18:11;100498.72;;;10.53;59.85
69796;BME280;57073;45.650;9.612;2023-02-16T23:28:12;100502.97;;;10.47;59.56
69796;BME280;57073;45.650;9.612;2023-02-16T23:38:13;100506.75;;;10.23;61.26
69796;BME280;57073;45.650;9.612;2023-02-16T23:48:14;100506.13;;;10.06;61.10
69796;BME280;57073;45.650;9.612;2023-02-16T23:58:14;100500.47;;;10.01;60.90
